KLKV

Lake County Airport

Lakeview, Oregon, USA
METAR KLKV 180856Z AUTO 00000KT 10SM CLR M07/M08 A3022 RMK AO2 SLP271 6//// T10671078 55001 FZRANO PNO $
Observed Flight Rules
Dec-18 @ 08:56 UTC (7 minutes ago) Visual Flight Rules
Wind Visibility Clouds
Calm 10 miles
  • Clear skies
Temperatures Readings
Current -7°C / 19°F
Dewpoint -8°C / 18°F
Humidity 93%
Altimeter 30.22" Hg
Pressure 1027.1 hPa
Elevation 1441
METAR KLKV 180856Z AUTO 00000KT 10SM CLR M07/M08 A3022 RMK AO2 SLP271 6//// T10671078 55001 FZRANO PNO $
Observed Flight Rules
Dec-18 @ 08:56 UTC
(7 minutes ago)
VFR
Wind Visibility
Calm 10 miles
Clouds
  • Clear skies
Temperature Dewpoint
-7°C / 19°F -8°C / 18°F
Humidity Altimeter Pressure
93% 30.22" Hg 1027.1 hPa